Flight Track Log - Related Links

Times and Time Zones

All times are in EDT time to prevent confusion due to time zone crossing. See the UCA4838 flight status page for this flight to view local times or setup timezone preferences in your user account.

Time Position Orientation Groundspeed Altitude Reporting Facility
EDT Latitude Longitude Course Direction KTS MPH feet Rate Location/Type
Fri 06:21:06 AM 43.1014 -77.6942 124° Southeast 125 144 1,200  Level Cleveland Center
Fri 06:21:43 AM 43.0792 -77.7122 211° Southwest 143 165 1,700 750 Climbing Cleveland Center
Fri 06:22:34 AM 43.0553 -77.6822 137° Southeast 131 151 2,300 1,081 Climbing Cleveland Center
Fri 06:23:34 AM 43.0389 -77.6119 108° East 147 169 3,700 1,250 Climbing Cleveland Center
Fri 06:24:34 AM 43.0144 -77.5450 117° Southeast 171 197 4,800 1,150 Climbing Cleveland Center
Fri 06:25:00 AM 42.8917 -77.1500 124° Southeast  Level FlightAware Approximate
Fri 06:25:34 AM 42.9894 -77.4694 114° Southeast 200 230 6,000  Level Cleveland Center
Fri 06:26:00 AM 42.8559 -77.0782 124° Southeast  Level FlightAware Approximate
Fri 06:26:34 AM 42.9625 -77.3969 117° Southeast 211 243 7,200  Level Cleveland Center
Fri 06:27:34 AM 42.9372 -77.3217 115° Southeast 216 249 8,400 1,046 Climbing Cleveland Center
Fri 06:29:49 AM 42.8783 -77.1519 115° Southeast 218 251 10,600 1,015 Climbing New York Center
Fri 06:30:49 AM 42.8533 -77.0731 113° Southeast 224 258 11,700 950 Climbing New York Center
Fri 06:31:49 AM 42.8242 -76.9939 117° Southeast 224 258 12,500 655 Climbing New York Center
Fri 06:32:48 AM 42.7908 -76.9144 120° Southeast 230 265 13,000 248 Climbing New York Center
Fri 06:33:50 AM 42.7494 -76.8258 122° Southeast 249 287 13,000  Level New York Center
Fri 06:34:54 AM 42.6994 -76.7153 122° Southeast 271 312 13,000  Level Boston Center
Fri 06:35:54 AM 42.6569 -76.6219 122° Southeast 302 348 13,000  Level Boston Center
Fri 06:36:54 AM 42.6144 -76.5286 122° Southeast 302 348 13,000  Level Boston Center
Fri 06:37:54 AM 42.5739 -76.4358 121° Southeast 297 342 13,000  Level Boston Center
Fri 06:38:54 AM 42.5314 -76.3400 121° Southeast 292 336 13,000  Level Boston Center
Fri 06:39:54 AM 42.4886 -76.2472 122° Southeast 287 330 13,000  Level Boston Center
Fri 06:40:54 AM 42.4500 -76.1547 119° Southeast 292 336 13,000 -50 Level Boston Center
Fri 06:41:54 AM 42.4011 -76.0533 123° Southeast 292 336 12,900 -50 Descending Boston Center
Fri 06:42:54 AM 42.3642 -75.9725 122° Southeast 284 327 12,900  Level Boston Center
Fri 06:43:54 AM 42.3194 -75.8689 120° Southeast 289 333 12,900  Level Boston Center
Fri 06:44:54 AM 42.2822 -75.7883 122° Southeast 289 333 12,900  Level Boston Center
Fri 06:45:54 AM 42.2411 -75.6964 121° Southeast 284 327 12,900  Level Boston Center
Fri 06:46:54 AM 42.2017 -75.6128 122° Southeast 277 319 12,900  Level Boston Center
Fri 06:48:06 AM 42.1583 -75.5211 123° Southeast 277 319 12,900  Level Boston Center
Fri 06:49:06 AM 42.1111 -75.4181 122° Southeast 272 313 12,900  Level Boston Center
Fri 06:50:06 AM 42.0736 -75.3350 121° Southeast 267 307 12,900  Level Boston Center
Fri 06:51:06 AM 42.0383 -75.2494 119° Southeast 267 307 12,900  Level Boston Center
Fri 06:52:06 AM 42.0072 -75.1617 115° Southeast 267 307 12,900  Level Boston Center
Fri 06:53:18 AM 41.9736 -75.0819 120° Southeast 267 307 12,900  Level Boston Center
Fri 06:54:18 AM 41.9303 -74.9683 117° Southeast 278 320 12,900  Level Boston Center
Fri 06:55:18 AM 41.8889 -74.8608 117° Southeast 283 326 12,900 -600 Level Boston Center
Fri 06:56:18 AM 41.8553 -74.7703 116° Southeast 296 341 11,700 -1,350 Descending Boston Center
Fri 06:57:18 AM 41.8117 -74.6572 117° Southeast 310 357 10,200 -1,400 Descending Boston Center
Fri 06:58:18 AM 41.7781 -74.5697 117° Southeast 299 344 8,900 -1,250 Descending Boston Center
Fri 06:59:18 AM 41.7014 -74.5422 165° South 265 305 7,700 -1,000 Descending Boston Center
Fri 07:00:18 AM 41.6367 -74.5511 186° South 253 291 6,900 -750 Descending Boston Center
Fri 07:01:18 AM 41.5572 -74.5653 188° South 258 297 6,200 -450 Descending Boston Center
Fri 07:02:18 AM 41.4944 -74.5742 186° South 258 297 6,000 -100 Descending Boston Center
Fri 07:03:18 AM 41.4192 -74.5911 190° South 258 297 6,000  Level Boston Center
Fri 07:03:58 AM 41.3667 -74.6000 187° South 251 289 6,000 -60 Level New York TRACON
Fri 07:04:58 AM 41.3000 -74.6333 201° Southwest 251 289 5,900 -368 Descending New York TRACON
Fri 07:05:52 AM 41.2500 -74.6000 153° Southeast 266 306 5,300 -474 Descending New York TRACON
Fri 07:06:52 AM 41.2000 -74.5333 135° Southeast 258 297 5,000 -157 Descending New York TRACON
Fri 07:07:47 AM 41.1500 -74.4667 135° Southeast 255 293 5,000  Level New York TRACON
Fri 07:08:46 AM 41.1000 -74.4000 135° Southeast 252 290 5,000  Level New York TRACON
Fri 07:09:46 AM 41.0500 -74.3333 135° Southeast 254 292 5,000  Level New York TRACON
Fri 07:10:41 AM 41.0167 -74.2667 124° Southeast 252 290 5,000 -263 Level New York TRACON
Fri 07:11:40 AM 40.9667 -74.2167 143° Southeast 256 295 4,500 -743 Descending New York TRACON
Fri 07:12:34 AM 40.9167 -74.1500 135° Southeast 254 292 3,600 -789 Descending New York TRACON
Fri 07:13:34 AM 40.8667 -74.1000 143° Southeast 223 257 3,000 -400 Descending New York TRACON
Fri 07:14:34 AM 40.8167 -74.0833 166° South 172 198 2,800 -600 Descending New York TRACON
Fri 07:15:34 AM 40.7833 -74.1000 201° Southwest 170 196 1,800 -887 Descending New York TRACON
Fri 07:16:29 AM 40.7500 -74.1333 217° Southwest 142 163 1,100 -737 Descending New York TRACON
Fri 07:17:28 AM 40.7167 -74.1500 201° Southwest 119 137 400 -712 Descending New York TRACON
Fri 07:19:00 AM 40.6925 -74.1687 161° South  Level Estimated
Fri 07:26:00 AM 40.6925 -74.1687 161° South  Level Estimated
Fri 07:27:00 AM 40.6925 -74.1687 161° South  Level Estimated

Login

Don't have an account? Register now (free) for customized features, flight alerts, and more!